createdAt,value
2017-08-16T00:00:04.949Z,6.78
2017-08-16T00:02:32.458Z,16.35
2017-08-16T00:05:00.032Z,14.73
2017-08-16T00:07:27.775Z,6.75
2017-08-16T00:09:55.304Z,8.95
2017-08-16T00:12:22.830Z,7.03
2017-08-16T00:14:50.423Z,9.80
2017-08-16T00:17:17.946Z,12.13
2017-08-16T00:19:45.478Z,8.38
2017-08-16T00:22:13.095Z,10.23
2017-08-16T00:24:40.636Z,12.82
2017-08-16T00:27:08.151Z,8.20
2017-08-16T00:29:35.779Z,6.07
2017-08-16T00:32:03.350Z,9.57
2017-08-16T00:34:30.872Z,8.05
2017-08-16T00:36:58.436Z,9.00
2017-08-16T00:39:25.982Z,6.87
2017-08-16T00:41:53.526Z,21.37
2017-08-16T00:44:21.079Z,9.77
2017-08-16T00:46:48.603Z,9.25
2017-08-16T00:49:16.166Z,10.48
2017-08-16T00:51:43.731Z,8.35
2017-08-16T00:54:11.269Z,9.85
2017-08-16T00:56:38.805Z,11.50
2017-08-16T00:59:06.387Z,6.70
2017-08-16T01:01:33.930Z,7.65
2017-08-16T01:04:01.473Z,9.10
2017-08-16T01:06:29.199Z,6.78
2017-08-16T01:08:56.742Z,10.95
2017-08-16T01:11:24.253Z,6.35
2017-08-16T01:13:52.023Z,13.00
2017-08-16T01:16:19.566Z,12.77
2017-08-16T01:18:47.117Z,6.70
2017-08-16T01:21:14.846Z,10.98
2017-08-16T01:23:42.372Z,6.32
2017-08-16T01:26:09.896Z,7.97
2017-08-16T01:28:37.437Z,9.45
2017-08-16T01:31:05.006Z,6.75
2017-08-16T01:33:32.583Z,11.50
2017-08-16T01:36:00.165Z,18.60
2017-08-16T01:38:27.698Z,12.63
2017-08-16T01:40:55.228Z,13.68
2017-08-16T01:43:22.814Z,11.90
2017-08-16T01:45:50.342Z,16.12
2017-08-16T01:48:17.903Z,8.98
2017-08-16T01:50:45.483Z,10.25
2017-08-16T01:53:13.038Z,13.68
2017-08-16T01:55:40.565Z,9.75
2017-08-16T01:58:08.124Z,9.40
2017-08-16T02:00:35.673Z,7.80
2017-08-16T02:03:03.230Z,14.23
2017-08-16T02:05:30.836Z,10.43
2017-08-16T02:07:58.390Z,10.27
2017-08-16T02:10:25.933Z,9.57
2017-08-16T02:12:53.493Z,11.98
2017-08-16T02:15:21.064Z,10.02
2017-08-16T02:17:48.567Z,9.95
2017-08-16T02:20:16.272Z,9.77
2017-08-16T02:22:43.803Z,13.68
2017-08-16T02:25:11.331Z,10.63
2017-08-16T02:27:38.895Z,8.05
2017-08-16T02:30:06.448Z,9.38
2017-08-16T02:32:33.986Z,9.80
2017-08-16T02:35:01.522Z,9.98
2017-08-16T02:37:29.069Z,9.35
2017-08-16T02:39:56.586Z,12.45
2017-08-16T02:42:24.178Z,9.63
2017-08-16T02:44:51.717Z,9.70
2017-08-16T02:47:19.258Z,9.27
2017-08-16T02:49:46.845Z,9.25
2017-08-16T02:52:14.346Z,9.52
2017-08-16T02:54:41.917Z,11.00
2017-08-16T02:57:09.469Z,9.00
2017-08-16T02:59:37.030Z,12.57
2017-08-16T03:02:04.566Z,8.18
2017-08-16T03:04:32.140Z,17.95
2017-08-16T03:06:59.676Z,13.02
2017-08-16T03:09:27.228Z,16.87
2017-08-16T03:11:54.912Z,9.20
2017-08-16T03:14:22.461Z,14.43
2017-08-16T03:16:50.004Z,10.43
2017-08-16T03:19:17.542Z,11.12
2017-08-16T03:21:45.070Z,16.65
2017-08-16T03:24:12.934Z,14.23
2017-08-16T03:26:40.518Z,15.10
2017-08-16T03:29:08.047Z,13.07
2017-08-16T03:31:35.600Z,8.90
2017-08-16T03:34:03.308Z,9.70
2017-08-16T03:36:30.841Z,19.17
2017-08-16T03:38:58.383Z,12.15
2017-08-16T03:41:25.958Z,9.13
2017-08-16T03:43:53.522Z,22.20
2017-08-16T03:46:21.059Z,14.95
2017-08-16T03:48:48.643Z,18.50
2017-08-16T03:51:16.200Z,9.80
2017-08-16T03:53:43.766Z,16.23
2017-08-16T03:56:11.378Z,10.70
2017-08-16T03:58:38.910Z,16.45
2017-08-16T04:01:06.435Z,10.73
2017-08-16T04:03:34.017Z,15.73
2017-08-16T04:06:01.557Z,17.52
2017-08-16T04:08:29.111Z,13.95
2017-08-16T04:10:56.819Z,13.00
2017-08-16T04:13:24.373Z,13.90
2017-08-16T04:15:52.745Z,22.50
2017-08-16T04:18:20.391Z,11.85
2017-08-16T04:20:47.940Z,35.88
2017-08-16T04:23:15.523Z,32.53
2017-08-16T04:25:43.101Z,27.98
2017-08-16T04:28:10.617Z,27.85
2017-08-16T04:30:38.183Z,18.55
2017-08-16T04:33:05.800Z,23.38
2017-08-16T04:35:33.364Z,16.65
2017-08-16T04:38:00.865Z,20.98
2017-08-16T04:40:28.424Z,19.10
2017-08-16T04:42:55.936Z,20.23
2017-08-16T04:45:23.499Z,23.62
2017-08-16T04:47:51.234Z,22.95
2017-08-16T04:50:18.930Z,20.50
2017-08-16T04:52:46.491Z,21.98
2017-08-16T04:55:14.052Z,26.17
2017-08-16T04:57:41.586Z,25.17
2017-08-16T05:00:09.137Z,29.45
2017-08-16T05:02:36.722Z,21.33
2017-08-16T05:05:04.268Z,18.17
2017-08-16T05:07:31.816Z,16.98
2017-08-16T05:09:59.543Z,20.73
2017-08-16T05:12:27.087Z,20.77
2017-08-16T05:14:54.641Z,20.70
2017-08-16T05:17:22.330Z,18.52
2017-08-16T05:19:49.860Z,23.02
2017-08-16T05:22:17.342Z,38.22
2017-08-16T05:24:44.997Z,21.45
2017-08-16T05:27:12.535Z,25.08
2017-08-16T05:29:40.076Z,21.25
2017-08-16T05:32:07.687Z,22.08
2017-08-16T05:34:35.276Z,22.58
2017-08-16T05:37:02.810Z,19.17
2017-08-16T05:39:30.351Z,21.25
2017-08-16T05:41:57.920Z,19.95
2017-08-16T05:44:25.482Z,20.20
2017-08-16T05:46:53.057Z,18.12
2017-08-16T05:49:20.599Z,22.00
2017-08-16T05:51:48.263Z,27.73
2017-08-16T05:54:15.928Z,17.40
2017-08-16T05:56:43.705Z,23.73
2017-08-16T05:59:11.313Z,18.48
2017-08-16T06:01:38.915Z,19.55
2017-08-16T06:04:06.642Z,20.05
2017-08-16T06:06:34.169Z,18.27
2017-08-16T06:09:01.691Z,18.45
2017-08-16T06:11:29.263Z,17.60
2017-08-16T06:13:56.823Z,12.80
2017-08-16T06:16:24.408Z,14.23
2017-08-16T06:18:51.962Z,19.70
2017-08-16T06:21:19.494Z,17.65
2017-08-16T06:23:47.141Z,18.12
2017-08-16T06:26:14.700Z,12.68
2017-08-16T06:28:42.253Z,13.00
2017-08-16T06:31:09.874Z,13.18
2017-08-16T06:33:37.449Z,13.82
2017-08-16T06:36:05.012Z,12.88
2017-08-16T06:38:32.650Z,17.40
2017-08-16T06:41:00.197Z,13.43
2017-08-16T06:43:27.707Z,8.80
2017-08-16T06:45:55.466Z,11.93
2017-08-16T06:48:23.014Z,26.40
2017-08-16T06:50:50.556Z,10.75
2017-08-16T06:53:18.126Z,12.32
2017-08-16T06:55:45.649Z,9.80
2017-08-16T06:58:13.225Z,13.88
2017-08-16T07:00:40.989Z,15.52
2017-08-16T07:03:08.530Z,15.35
2017-08-16T07:05:36.071Z,18.98
2017-08-16T07:08:03.632Z,13.20
2017-08-16T07:10:31.210Z,14.93
2017-08-16T07:12:58.800Z,10.82
2017-08-16T07:15:26.339Z,12.20
2017-08-16T07:17:53.900Z,10.00
2017-08-16T07:20:21.485Z,13.62
2017-08-16T07:22:49.055Z,10.13
2017-08-16T07:25:16.649Z,13.30
2017-08-16T07:27:44.216Z,10.05
2017-08-16T07:30:11.767Z,13.93
2017-08-16T07:32:39.321Z,11.65
2017-08-16T07:35:06.851Z,11.38
2017-08-16T07:37:34.607Z,16.80
2017-08-16T07:40:02.170Z,11.85
2017-08-16T07:42:29.703Z,14.50
2017-08-16T07:44:57.305Z,12.80
2017-08-16T07:47:24.884Z,12.35
2017-08-16T07:49:52.426Z,11.90
2017-08-16T07:52:20.144Z,12.48
2017-08-16T07:54:47.735Z,10.75
2017-08-16T07:57:15.303Z,16.52
2017-08-16T07:59:42.892Z,12.45
2017-08-16T08:02:10.421Z,12.63
2017-08-16T08:04:37.977Z,12.65
2017-08-16T08:07:05.713Z,20.67
2017-08-16T08:09:33.261Z,14.07
2017-08-16T08:12:00.788Z,17.77
2017-08-16T08:14:28.415Z,16.08
2017-08-16T08:16:55.978Z,12.63
2017-08-16T08:19:23.546Z,13.60
2017-08-16T08:21:51.448Z,13.25
2017-08-16T08:24:18.985Z,9.60
2017-08-16T08:26:46.562Z,13.73
2017-08-16T08:29:14.322Z,11.82
2017-08-16T08:31:41.806Z,10.48
2017-08-16T08:34:09.385Z,13.10
2017-08-16T08:36:37.159Z,15.27
2017-08-16T08:39:04.711Z,20.00
2017-08-16T08:41:32.258Z,16.80
2017-08-16T08:43:59.825Z,16.15
2017-08-16T08:46:27.404Z,13.32
2017-08-16T08:48:58.380Z,13.75
2017-08-16T08:51:25.994Z,14.68
2017-08-16T08:53:53.531Z,15.73
2017-08-16T08:56:21.043Z,12.60
2017-08-16T08:58:48.625Z,14.98
2017-08-16T09:01:16.181Z,18.90
2017-08-16T09:03:43.715Z,13.82
2017-08-16T09:06:11.495Z,24.37
2017-08-16T09:08:39.038Z,22.33
2017-08-16T09:11:06.632Z,22.90
2017-08-16T09:13:34.271Z,17.50
2017-08-16T09:16:01.787Z,26.55
2017-08-16T09:18:29.331Z,20.45
2017-08-16T09:20:57.111Z,16.37
2017-08-16T09:23:24.740Z,25.88
2017-08-16T09:25:52.274Z,20.02
2017-08-16T09:28:19.910Z,20.98
2017-08-16T09:30:47.471Z,15.50
2017-08-16T09:33:14.995Z,18.10
2017-08-16T09:35:42.768Z,13.18
2017-08-16T09:38:10.296Z,24.63
2017-08-16T09:40:37.905Z,23.83
2017-08-16T09:43:05.672Z,30.80
2017-08-16T09:45:33.232Z,26.48
2017-08-16T09:48:00.762Z,18.73
2017-08-16T09:50:28.478Z,17.50
2017-08-16T09:52:56.037Z,18.62
2017-08-16T09:55:23.563Z,16.98
2017-08-16T09:57:51.061Z,22.87
2017-08-16T10:00:18.622Z,16.10
2017-08-16T10:02:46.157Z,11.88
2017-08-16T10:05:13.762Z,8.63
2017-08-16T10:07:41.313Z,11.85
2017-08-16T10:10:08.866Z,12.10
2017-08-16T10:12:36.456Z,15.38
2017-08-16T10:15:04.042Z,13.30
2017-08-16T10:17:31.592Z,8.35
2017-08-16T10:19:59.144Z,13.70
2017-08-16T10:22:26.706Z,14.10
2017-08-16T10:24:54.285Z,13.88
2017-08-16T10:27:21.983Z,11.25
2017-08-16T10:29:49.571Z,15.13
2017-08-16T10:32:17.155Z,11.93
2017-08-16T10:34:44.768Z,13.40
2017-08-16T10:37:12.275Z,12.45
2017-08-16T10:39:39.802Z,11.30
2017-08-16T10:42:07.509Z,13.10
2017-08-16T10:44:35.081Z,11.70
2017-08-16T10:47:02.734Z,10.75
2017-08-16T10:49:30.572Z,8.68
2017-08-16T10:51:58.127Z,11.10
2017-08-16T10:54:25.687Z,11.07
2017-08-16T10:56:53.282Z,9.57
2017-08-16T10:59:21.671Z,10.82
2017-08-16T11:01:49.252Z,13.27
2017-08-16T11:04:16.873Z,12.48
2017-08-16T11:06:44.433Z,10.18
2017-08-16T11:09:11.967Z,9.50
2017-08-16T11:11:39.502Z,12.80
2017-08-16T11:14:07.062Z,13.45
2017-08-16T11:16:34.644Z,10.82
2017-08-16T11:19:02.160Z,9.68
2017-08-16T11:21:29.710Z,10.50
2017-08-16T11:23:57.242Z,8.30
2017-08-16T11:26:24.774Z,13.90
2017-08-16T11:28:52.306Z,6.68
2017-08-16T11:31:19.852Z,6.30
2017-08-16T11:33:47.448Z,5.35
2017-08-16T11:36:14.962Z,8.50
2017-08-16T11:38:42.469Z,4.75
2017-08-16T11:41:10.112Z,5.10
2017-08-16T11:43:37.638Z,5.40
2017-08-16T11:46:05.202Z,6.37
2017-08-16T11:48:32.825Z,12.82
2017-08-16T11:51:01.264Z,7.72
2017-08-16T11:53:28.811Z,8.15
2017-08-16T11:55:56.403Z,14.68
2017-08-16T11:58:23.980Z,10.05
2017-08-16T12:00:51.515Z,9.95
2017-08-16T12:03:19.227Z,7.78
2017-08-16T12:05:46.807Z,11.00
2017-08-16T12:08:14.396Z,11.88
2017-08-16T12:10:41.971Z,9.57
2017-08-16T12:13:09.543Z,12.35
2017-08-16T12:15:37.082Z,13.05
2017-08-16T12:18:04.801Z,13.82
2017-08-16T12:20:32.377Z,18.08
2017-08-16T12:22:59.883Z,22.13
2017-08-16T12:25:27.590Z,31.33
2017-08-16T12:27:55.150Z,21.70
2017-08-16T12:30:22.688Z,22.92
2017-08-16T12:32:50.469Z,23.08
2017-08-16T12:35:18.023Z,24.15
2017-08-16T12:37:45.570Z,22.87
2017-08-16T12:40:13.111Z,23.38
2017-08-16T12:42:41.849Z,24.67
2017-08-16T12:45:09.582Z,19.33
2017-08-16T12:47:37.198Z,22.67
2017-08-16T12:50:04.745Z,17.98
2017-08-16T12:52:32.285Z,25.67
2017-08-16T12:54:59.887Z,21.95
2017-08-16T12:57:27.775Z,20.48
2017-08-16T12:59:55.331Z,23.00
2017-08-16T13:02:22.987Z,28.15
2017-08-16T13:04:50.599Z,18.90
2017-08-16T13:07:18.389Z,22.45
2017-08-16T13:09:46.034Z,22.67
2017-08-16T13:12:13.581Z,20.80
2017-08-16T13:14:41.068Z,21.83
2017-08-16T13:17:08.696Z,19.37
2017-08-16T13:19:36.238Z,16.27
2017-08-16T13:22:03.769Z,17.77
2017-08-16T13:24:31.498Z,17.35
2017-08-16T13:26:59.199Z,20.40
2017-08-16T13:29:26.805Z,24.45
2017-08-16T13:31:54.415Z,21.60
2017-08-16T13:34:23.146Z,26.62
2017-08-16T13:36:51.070Z,31.17
2017-08-16T13:39:18.718Z,38.58
2017-08-16T13:41:46.438Z,32.92
2017-08-16T13:44:14.222Z,32.08
2017-08-16T13:46:41.960Z,28.45
2017-08-16T13:49:09.499Z,32.60
2017-08-16T13:51:37.040Z,28.30
2017-08-16T13:54:04.708Z,37.08
2017-08-16T13:56:32.271Z,28.40
2017-08-16T13:58:59.860Z,22.25
2017-08-16T14:01:27.429Z,28.05
2017-08-16T14:03:54.985Z,21.62
2017-08-16T14:06:22.562Z,25.27
2017-08-16T14:08:50.123Z,31.98
2017-08-16T14:11:18.302Z,23.45
2017-08-16T14:13:46.956Z,23.98
2017-08-16T14:16:14.681Z,19.83
2017-08-16T14:18:42.248Z,22.92
2017-08-16T14:21:10.607Z,17.23
2017-08-16T14:23:38.262Z,23.38
2017-08-16T14:26:05.828Z,17.60
2017-08-16T14:28:33.414Z,18.62
2017-08-16T14:31:00.960Z,17.62
2017-08-16T14:33:28.581Z,22.65
2017-08-16T14:35:56.119Z,19.37
2017-08-16T14:38:23.739Z,17.15
2017-08-16T14:40:51.328Z,18.95
2017-08-16T14:43:18.915Z,18.37
2017-08-16T14:45:46.713Z,21.83
2017-08-16T14:48:15.395Z,16.65
2017-08-16T14:50:44.177Z,16.50
2017-08-16T14:53:12.383Z,17.75
2017-08-16T14:55:39.967Z,18.40
2017-08-16T14:58:07.537Z,19.30
2017-08-16T15:00:35.142Z,19.73
2017-08-16T15:03:02.659Z,20.30
2017-08-16T15:05:30.410Z,22.15
2017-08-16T15:07:58.064Z,22.30
2017-08-16T15:10:25.671Z,19.77
2017-08-16T15:12:53.297Z,21.62
2017-08-16T15:15:21.069Z,17.77
2017-08-16T15:17:48.603Z,16.27
2017-08-16T15:20:16.127Z,16.27
2017-08-16T15:22:43.722Z,18.62
2017-08-16T15:25:11.283Z,13.95
2017-08-16T15:27:38.805Z,16.80
2017-08-16T15:30:06.575Z,14.90
2017-08-16T15:32:34.077Z,24.02
2017-08-16T15:35:01.633Z,18.30
2017-08-16T15:37:29.225Z,22.62
2017-08-16T15:39:56.764Z,17.25
2017-08-16T15:42:24.305Z,19.50
2017-08-16T15:44:51.878Z,16.77
2017-08-16T15:47:19.417Z,14.98
2017-08-16T15:49:47.073Z,16.80
2017-08-16T15:52:14.741Z,12.85
2017-08-16T15:54:42.253Z,13.60
2017-08-16T15:57:09.793Z,14.18
2017-08-16T15:59:37.381Z,14.45
2017-08-16T16:02:04.901Z,14.30
2017-08-16T16:04:32.475Z,15.95
2017-08-16T16:07:00.228Z,20.80
2017-08-16T16:09:27.763Z,15.25
2017-08-16T16:11:55.319Z,14.90
2017-08-16T16:14:22.899Z,14.18
2017-08-16T16:16:50.645Z,17.77
2017-08-16T16:19:18.211Z,21.00
2017-08-16T16:21:45.913Z,19.50
2017-08-16T16:24:13.491Z,19.30
2017-08-16T16:26:41.125Z,20.12
2017-08-16T16:29:10.573Z,28.15
2017-08-16T16:31:38.195Z,26.60
2017-08-16T16:34:05.749Z,25.75
2017-08-16T16:36:35.592Z,19.50
2017-08-16T16:39:03.169Z,24.05
2017-08-16T16:41:30.767Z,20.88
2017-08-16T16:43:58.416Z,26.40
2017-08-16T16:46:26.026Z,25.55
2017-08-16T16:48:53.683Z,27.23
2017-08-16T16:51:22.569Z,26.92
2017-08-16T16:53:50.143Z,25.42
2017-08-16T16:56:17.778Z,31.75
2017-08-16T16:58:45.409Z,29.12
2017-08-16T17:01:13.050Z,26.17
2017-08-16T17:03:40.661Z,36.22
2017-08-16T17:06:08.263Z,28.00
2017-08-16T17:08:35.835Z,22.87
2017-08-16T17:11:03.476Z,31.02
2017-08-16T17:13:31.211Z,26.50
2017-08-16T17:15:59.333Z,24.65
2017-08-16T17:18:26.945Z,28.55
2017-08-16T17:20:54.553Z,30.05
2017-08-16T17:23:23.004Z,25.27
2017-08-16T17:25:50.593Z,28.05
2017-08-16T17:28:18.141Z,31.33
2017-08-16T17:30:45.715Z,27.02
2017-08-16T17:33:13.253Z,25.88
2017-08-16T17:35:40.938Z,26.58
2017-08-16T17:38:08.545Z,30.95
2017-08-16T17:40:36.077Z,32.03
2017-08-16T17:43:03.825Z,34.20
2017-08-16T17:45:31.898Z,31.50
2017-08-16T17:47:59.551Z,37.13
2017-08-16T17:50:27.785Z,36.35
2017-08-16T17:52:55.433Z,36.80
2017-08-16T17:55:23.071Z,38.42
2017-08-16T17:57:50.741Z,44.42
2017-08-16T18:00:18.530Z,44.03
2017-08-16T18:02:46.124Z,45.72
2017-08-16T18:05:13.789Z,47.10
2017-08-16T18:07:43.661Z,46.47
2017-08-16T18:10:12.160Z,45.97
2017-08-16T18:12:40.209Z,50.50
2017-08-16T18:15:09.464Z,44.45
2017-08-16T18:17:37.135Z,39.85
2017-08-16T18:20:06.485Z,45.10
2017-08-16T18:22:34.988Z,55.67
2017-08-16T18:25:03.452Z,40.78
2017-08-16T18:27:31.064Z,48.42
2017-08-16T18:29:58.711Z,42.90
2017-08-16T18:32:26.336Z,47.25
2017-08-16T18:34:53.958Z,44.28
2017-08-16T18:37:23.644Z,40.20
2017-08-16T18:39:52.096Z,38.53
2017-08-16T18:42:21.315Z,42.03
2017-08-16T18:44:49.031Z,41.35
2017-08-16T18:47:16.644Z,41.40
2017-08-16T18:49:45.154Z,44.58
2017-08-16T18:52:13.420Z,54.58
2017-08-16T18:54:41.396Z,61.45
2017-08-16T18:57:09.739Z,51.78
2017-08-16T18:59:38.883Z,51.25
2017-08-16T19:02:06.478Z,57.75
2017-08-16T19:04:34.162Z,65.47
2017-08-16T19:07:01.688Z,58.50
2017-08-16T19:09:29.830Z,46.60
2017-08-16T19:11:57.504Z,42.22
2017-08-16T19:14:25.119Z,47.30
2017-08-16T19:16:52.851Z,49.22
2017-08-16T19:19:20.453Z,45.28
2017-08-16T19:21:48.855Z,51.42
2017-08-16T19:24:17.214Z,45.03
2017-08-16T19:26:45.591Z,39.55
2017-08-16T19:29:14.002Z,46.17
2017-08-16T19:31:41.582Z,47.22
2017-08-16T19:34:09.196Z,37.60
2017-08-16T19:36:36.747Z,37.90
2017-08-16T19:39:04.324Z,30.15
2017-08-16T19:41:31.961Z,32.67
2017-08-16T19:43:59.782Z,34.80
2017-08-16T19:46:27.480Z,31.00
2017-08-16T19:48:55.188Z,28.83
2017-08-16T19:51:23.460Z,31.62
2017-08-16T19:53:51.790Z,62.00
2017-08-16T19:56:20.275Z,37.25
2017-08-16T19:58:47.870Z,31.92
2017-08-16T20:01:15.541Z,43.83
2017-08-16T20:03:43.330Z,32.20
2017-08-16T20:06:10.935Z,38.88
2017-08-16T20:08:39.322Z,38.88
2017-08-16T20:11:07.163Z,33.22
2017-08-16T20:13:35.114Z,42.03
2017-08-16T20:16:02.742Z,30.08
2017-08-16T20:18:32.199Z,27.95
2017-08-16T20:20:59.873Z,24.67
2017-08-16T20:23:27.938Z,25.80
2017-08-16T20:25:55.587Z,27.90
2017-08-16T20:28:24.307Z,29.85
2017-08-16T20:30:52.002Z,33.17
2017-08-16T20:33:20.128Z,27.02
2017-08-16T20:35:49.581Z,24.60
2017-08-16T20:38:18.183Z,24.83
2017-08-16T20:40:45.823Z,22.73
2017-08-16T20:43:13.386Z,25.42
2017-08-16T20:45:41.891Z,22.90
2017-08-16T20:48:10.462Z,22.10
2017-08-16T20:50:38.066Z,23.35
2017-08-16T20:53:05.643Z,27.62
2017-08-16T20:55:33.281Z,31.73
2017-08-16T20:58:01.700Z,28.70
2017-08-16T21:00:30.166Z,32.92
2017-08-16T21:02:58.299Z,36.55
2017-08-16T21:05:25.826Z,30.15
2017-08-16T21:07:53.381Z,30.00
2017-08-16T21:10:21.018Z,31.50
2017-08-16T21:12:48.612Z,32.03
2017-08-16T21:15:16.216Z,33.88
2017-08-16T21:17:43.860Z,37.38
2017-08-16T21:20:12.259Z,29.20
2017-08-16T21:22:39.791Z,36.17
2017-08-16T21:25:07.649Z,56.35
2017-08-16T21:27:35.201Z,32.88
2017-08-16T21:30:02.784Z,34.13
2017-08-16T21:32:30.439Z,41.92
2017-08-16T21:34:58.010Z,31.35
2017-08-16T21:37:25.651Z,41.67
2017-08-16T21:39:53.254Z,30.35
2017-08-16T21:42:20.872Z,33.80
2017-08-16T21:44:48.495Z,39.35
2017-08-16T21:47:16.142Z,46.25
2017-08-16T21:49:43.731Z,68.85
2017-08-16T21:52:11.288Z,48.10
2017-08-16T21:54:38.923Z,44.17
2017-08-16T21:57:06.457Z,72.93
2017-08-16T21:59:34.054Z,49.28
2017-08-16T22:02:01.690Z,58.08
2017-08-16T22:04:29.316Z,64.87
2017-08-16T22:06:56.893Z,70.25
2017-08-16T22:09:24.542Z,63.53
2017-08-16T22:11:52.151Z,67.15
2017-08-16T22:14:19.754Z,77.15
2017-08-16T22:16:47.407Z,122.47
2017-08-16T22:19:14.992Z,118.15
2017-08-16T22:21:42.574Z,86.87
2017-08-16T22:24:10.271Z,85.05
2017-08-16T22:26:37.831Z,136.57
2017-08-16T22:29:05.403Z,85.93
2017-08-16T22:31:33.246Z,81.28
2017-08-16T22:34:00.802Z,59.13
2017-08-16T22:36:29.094Z,41.25
2017-08-16T22:38:56.706Z,58.25
2017-08-16T22:41:24.267Z,72.30
2017-08-16T22:43:51.813Z,47.03
2017-08-16T22:46:19.375Z,55.60
2017-08-16T22:48:46.868Z,74.53
2017-08-16T22:51:14.466Z,45.30
2017-08-16T22:53:42.206Z,59.00
2017-08-16T22:56:09.773Z,60.12
2017-08-16T22:58:37.343Z,85.78
2017-08-16T23:01:05.123Z,101.80
2017-08-16T23:03:32.678Z,90.62
2017-08-16T23:06:00.272Z,88.87
2017-08-16T23:08:27.867Z,99.13
2017-08-16T23:10:55.380Z,64.22
2017-08-16T23:13:22.946Z,61.00
2017-08-16T23:15:50.531Z,55.92
2017-08-16T23:18:18.048Z,41.90
2017-08-16T23:20:45.586Z,32.08
2017-08-16T23:23:13.356Z,56.83
2017-08-16T23:25:40.953Z,34.33
2017-08-16T23:28:08.519Z,55.35
2017-08-16T23:30:36.084Z,43.63
2017-08-16T23:33:03.669Z,49.58
2017-08-16T23:35:31.200Z,67.97
2017-08-16T23:37:58.793Z,63.97
2017-08-16T23:40:26.352Z,69.70
2017-08-16T23:42:53.928Z,54.78
2017-08-16T23:45:21.525Z,36.33
2017-08-16T23:47:49.074Z,44.35
2017-08-16T23:50:16.663Z,36.92
2017-08-16T23:52:44.421Z,33.60
2017-08-16T23:55:11.990Z,37.00
2017-08-16T23:57:39.550Z,32.38
